createdAt,value
2018-09-13T00:03:32.451Z,84.8
2018-09-13T00:08:32.676Z,84.4
2018-09-13T00:13:32.685Z,83
2018-09-13T00:18:32.689Z,82.7
2018-09-13T00:23:44.732Z,84.1
2018-09-13T00:28:44.675Z,84
2018-09-13T00:33:44.454Z,84.3
2018-09-13T00:38:44.635Z,84.5
2018-09-13T00:43:44.467Z,85
2018-09-13T00:48:44.462Z,85.6
2018-09-13T00:53:44.480Z,86.2
2018-09-13T00:58:44.471Z,84.9
2018-09-13T01:03:44.590Z,84.5
2018-09-13T01:08:57.268Z,84.9
2018-09-13T01:13:56.994Z,85
2018-09-13T01:18:57.010Z,86.8
2018-09-13T01:23:57.012Z,85.3
2018-09-13T01:28:57.001Z,86.5
2018-09-13T01:33:57.016Z,86.5
2018-09-13T01:38:57.230Z,88.2
2018-09-13T01:43:56.948Z,88
2018-09-13T01:48:57.203Z,87
2018-09-13T01:53:57.007Z,88.1
2018-09-13T01:58:57.025Z,87.6
2018-09-13T02:03:57.185Z,86.2
2018-09-13T02:08:57.039Z,86.7
2018-09-13T02:13:57.018Z,87
2018-09-13T02:19:08.215Z,87.2
2018-09-13T02:24:07.882Z,86.4
2018-09-13T02:29:07.928Z,87.8
2018-09-13T02:34:08.162Z,88.3
2018-09-13T02:39:08.087Z,89.1
2018-09-13T02:44:08.143Z,87.5
2018-09-13T02:49:08.231Z,87.1
2018-09-13T02:54:07.934Z,88.5
2018-09-13T02:59:07.952Z,88.9
2018-09-13T03:04:19.455Z,89
2018-09-13T03:09:19.188Z,88
2018-09-13T03:14:19.184Z,87.4
2018-09-13T03:19:19.162Z,88.5
2018-09-13T03:24:19.181Z,88.2
2018-09-13T03:29:19.170Z,90.4
2018-09-13T03:34:19.178Z,90.3
2018-09-13T03:39:19.191Z,89.3
2018-09-13T03:44:19.393Z,89.3
2018-09-13T03:49:19.425Z,89.4
2018-09-13T03:54:19.350Z,89.2
2018-09-13T03:59:19.193Z,88.5
2018-09-13T04:04:19.285Z,89.5
2018-09-13T04:09:19.316Z,88.7
2018-09-13T04:14:31.270Z,88.7
2018-09-13T04:19:30.971Z,90.1
2018-09-13T04:24:30.973Z,90.6
2018-09-13T04:29:31.157Z,89.8
2018-09-13T04:34:30.984Z,90
2018-09-13T04:39:31.046Z,90.6
2018-09-13T04:44:31.011Z,90
2018-09-13T04:49:31.159Z,92.4
2018-09-13T04:54:31.205Z,91.1
2018-09-13T04:59:43.308Z,90.7
2018-09-13T05:04:43.021Z,90.2
2018-09-13T05:09:43.040Z,90.2
2018-09-13T05:14:43.039Z,90.2
2018-09-13T05:19:43.170Z,89.9
2018-09-13T05:24:45.259Z,90.6
2018-09-13T05:29:45.133Z,90.1
2018-09-13T05:34:44.987Z,89.1
2018-09-13T05:39:45.005Z,87.5
2018-09-13T05:44:45.190Z,86.3
2018-09-13T05:49:44.995Z,84.8
2018-09-13T05:54:44.980Z,83.1
2018-09-13T05:59:48.076Z,83
2018-09-13T06:04:47.930Z,81.5
2018-09-13T06:10:00.218Z,80
2018-09-13T06:15:00.161Z,79.7
2018-09-13T06:19:59.944Z,79.7
2018-09-13T06:25:00.060Z,79.1
2018-09-13T06:30:00.153Z,79.2
2018-09-13T06:35:00.064Z,78.7
2018-09-13T06:39:59.950Z,80.4
2018-09-13T06:45:02.456Z,80.5
2018-09-13T06:50:02.342Z,79.6
2018-09-13T06:55:13.096Z,79.4
2018-09-13T07:00:12.798Z,78.4
2018-09-13T07:05:12.769Z,76.7
2018-09-13T07:10:12.905Z,77.2
2018-09-13T07:15:12.789Z,77
2018-09-13T07:20:13.929Z,77
2018-09-13T07:25:13.735Z,74
2018-09-13T07:30:13.522Z,71.8
2018-09-13T07:35:13.685Z,71.1
2018-09-13T07:40:13.737Z,70.9
2018-09-13T07:45:13.745Z,71.2
2018-09-13T07:50:13.557Z,67.9
2018-09-13T07:55:14.111Z,66.9
2018-09-13T08:00:13.947Z,63.9
2018-09-13T08:05:26.723Z,63
2018-09-13T08:10:26.481Z,65
2018-09-13T08:15:26.684Z,63.7
2018-09-13T08:20:26.711Z,60.1
2018-09-13T08:25:26.506Z,60.4
2018-09-13T08:30:26.465Z,60.8
2018-09-13T08:35:26.496Z,60
2018-09-13T08:40:27.177Z,59.4
2018-09-13T08:45:27.072Z,58.4
2018-09-13T08:50:38.819Z,59.1
2018-09-13T08:55:38.568Z,57.7
2018-09-13T09:00:38.982Z,58.1
2018-09-13T09:05:38.789Z,57.3
2018-09-13T09:10:38.701Z,56.4
2018-09-13T09:15:38.709Z,56.2
2018-09-13T09:20:38.571Z,54.9
2018-09-13T09:25:38.960Z,53.5
2018-09-13T09:30:38.794Z,51.6
2018-09-13T09:35:51.028Z,50.4
2018-09-13T09:40:50.786Z,52.8
2018-09-13T09:45:50.777Z,50.8
2018-09-13T09:50:50.986Z,52.7
2018-09-13T09:55:50.786Z,50.6
2018-09-13T10:00:50.797Z,51.1
2018-09-13T10:05:50.972Z,50.7
2018-09-13T10:10:50.802Z,49.8
2018-09-13T10:15:50.801Z,49.3
2018-09-13T10:21:02.322Z,50.3
2018-09-13T10:26:02.171Z,47.2
2018-09-13T10:31:02.036Z,47.1
2018-09-13T10:36:02.025Z,47.2
2018-09-13T10:41:02.288Z,43.5
2018-09-13T10:46:02.041Z,43.9
2018-09-13T10:51:02.040Z,45.8
2018-09-13T10:56:02.070Z,41.8
2018-09-13T11:01:02.098Z,42.8
2018-09-13T11:06:14.336Z,43.1
2018-09-13T11:11:14.468Z,43.6
2018-09-13T11:16:14.155Z,42.8
2018-09-13T11:21:14.211Z,46
2018-09-13T11:26:14.279Z,43.5
2018-09-13T11:31:14.057Z,44.3
2018-09-13T11:36:14.011Z,45
2018-09-13T11:41:17.198Z,44.3
2018-09-13T11:46:17.079Z,44.1
2018-09-13T11:51:29.540Z,44.6
2018-09-13T11:56:29.401Z,43.8
2018-09-13T12:01:29.253Z,44.3
2018-09-13T12:06:29.478Z,44.4
2018-09-13T12:11:29.242Z,43.7
2018-09-13T12:16:29.245Z,43.3
2018-09-13T12:21:29.265Z,42.7
2018-09-13T12:26:29.285Z,42.9
2018-09-13T12:31:29.268Z,42.5
2018-09-13T12:36:29.510Z,44.6
2018-09-13T12:41:29.261Z,44.7
2018-09-13T12:46:29.461Z,43.7
2018-09-13T12:51:32.034Z,43.3
2018-09-13T12:56:32.192Z,42.7
2018-09-13T13:01:42.231Z,41.1
2018-09-13T13:06:42.229Z,40.8
2018-09-13T13:11:41.986Z,42.2
2018-09-13T13:16:42.637Z,39.3
2018-09-13T13:21:42.187Z,39.7
2018-09-13T13:26:42.113Z,42.1
2018-09-13T13:31:42.133Z,42.2
2018-09-13T13:36:42.105Z,41.6
2018-09-13T13:41:42.109Z,40.1
2018-09-13T13:46:54.439Z,40.3
2018-09-13T13:51:54.377Z,39.5
2018-09-13T13:56:54.168Z,39.7
2018-09-13T14:01:54.293Z,38.1
2018-09-13T14:06:54.369Z,38
2018-09-13T14:11:54.186Z,38.7
2018-09-13T14:16:54.160Z,38.4
2018-09-13T14:21:54.380Z,39
2018-09-13T14:26:54.312Z,39.2
2018-09-13T14:31:54.186Z,39.5
2018-09-13T14:36:54.222Z,40
2018-09-13T14:41:54.312Z,38.2
2018-09-13T14:46:54.204Z,39.1
2018-09-13T14:51:54.225Z,40.9
2018-09-13T14:57:07.394Z,41.3
2018-09-13T15:02:07.088Z,40.3
2018-09-13T15:07:07.194Z,40.4
2018-09-13T15:12:07.105Z,43
2018-09-13T15:17:07.263Z,43.2
2018-09-13T15:22:07.120Z,43.2
2018-09-13T15:27:07.046Z,41.8
2018-09-13T15:32:09.123Z,43.4
2018-09-13T15:37:09.067Z,42.4
2018-09-13T15:42:20.983Z,43.5
2018-09-13T15:47:20.615Z,43.6
2018-09-13T15:52:20.696Z,44.4
2018-09-13T15:57:20.702Z,44.3
2018-09-13T16:02:20.687Z,44.2
2018-09-13T16:07:20.695Z,45
2018-09-13T16:12:20.809Z,44.9
2018-09-13T16:17:23.995Z,45.9
2018-09-13T16:22:23.696Z,46.7
2018-09-13T16:27:33.933Z,47.7
2018-09-13T16:32:33.678Z,47.4
2018-09-13T16:37:33.740Z,49.6
2018-09-13T16:42:33.783Z,50.3
2018-09-13T16:47:34.153Z,48.8
2018-09-13T16:52:33.696Z,48
2018-09-13T16:57:33.715Z,48.4
2018-09-13T17:02:35.680Z,50.9
2018-09-13T17:07:35.421Z,51.4
2018-09-13T17:12:49.421Z,51.6
2018-09-13T17:17:49.202Z,53
2018-09-13T17:22:49.151Z,53.3
2018-09-13T17:27:49.190Z,54.3
2018-09-13T17:32:49.169Z,55.8
2018-09-13T17:37:49.804Z,56.1
2018-09-13T17:42:49.206Z,56.7
2018-09-13T17:47:49.169Z,58.7
2018-09-13T17:52:49.194Z,59
2018-09-13T17:58:00.614Z,59.9
2018-09-13T18:03:00.331Z,60.7
2018-09-13T18:08:00.351Z,60.1
2018-09-13T18:13:00.346Z,60.3
2018-09-13T18:18:00.973Z,61.6
2018-09-13T18:23:01.613Z,62.4
2018-09-13T18:28:00.390Z,63.6
2018-09-13T18:33:00.526Z,62.4
2018-09-13T18:38:00.419Z,63.1
2018-09-13T18:43:00.431Z,64.6
2018-09-13T18:48:00.356Z,65.1
2018-09-13T18:53:00.626Z,64
2018-09-13T18:58:02.142Z,66.5
2018-09-13T19:03:02.297Z,73
2018-09-13T19:08:14.021Z,75.1
2018-09-13T19:13:13.704Z,78.5
2018-09-13T19:18:13.745Z,85.3
2018-09-13T19:23:13.768Z,84.1
2018-09-13T19:28:13.804Z,86.8
2018-09-13T19:33:13.748Z,86.6
2018-09-13T19:38:13.777Z,89
2018-09-13T19:43:13.823Z,89.8
2018-09-13T19:48:13.881Z,92.5
2018-09-13T19:53:26.278Z,90.7
2018-09-13T19:58:26.094Z,92.9
2018-09-13T20:03:26.234Z,94.1
2018-09-13T20:08:26.147Z,95
2018-09-13T20:13:25.960Z,92.9
2018-09-13T20:18:27.724Z,92.1
2018-09-13T20:23:27.392Z,94.1
2018-09-13T20:28:29.338Z,95.7
2018-09-13T20:33:28.865Z,95.5
2018-09-13T20:38:41.714Z,95.6
2018-09-13T20:43:41.417Z,95
2018-09-13T20:48:41.804Z,95.4
2018-09-13T20:53:41.399Z,98.1
2018-09-13T20:58:41.404Z,97.7
2018-09-13T21:03:41.422Z,96.5
2018-09-13T21:08:41.803Z,96.6
2018-09-13T21:13:41.665Z,96.8
2018-09-13T21:18:41.674Z,97.5
2018-09-13T21:23:41.394Z,100
2018-09-13T21:28:41.425Z,97
2018-09-13T21:33:41.422Z,100
2018-09-13T21:38:43.598Z,97.9
2018-09-13T21:43:43.474Z,96.3
2018-09-13T21:48:56.456Z,98.7
2018-09-13T21:53:56.149Z,98.9
2018-09-13T21:58:56.485Z,100
2018-09-13T22:03:56.179Z,99
2018-09-13T22:08:56.370Z,98.6
2018-09-13T22:13:57.761Z,97.9
2018-09-13T22:18:57.919Z,100
2018-09-13T22:23:59.943Z,97.6
2018-09-13T22:28:59.969Z,98.1
2018-09-13T22:34:12.548Z,96.9
2018-09-13T22:39:12.372Z,96.2
2018-09-13T22:44:12.259Z,95.5
2018-09-13T22:49:12.261Z,96.9
2018-09-13T22:54:12.452Z,99.5
2018-09-13T22:59:12.248Z,98.5
2018-09-13T23:04:12.509Z,98.6
2018-09-13T23:09:12.261Z,98.6
2018-09-13T23:14:12.355Z,98.5
2018-09-13T23:19:12.373Z,97.7
2018-09-13T23:24:12.449Z,98.7
2018-09-13T23:29:12.284Z,98.9
2018-09-13T23:34:12.673Z,100
2018-09-13T23:39:12.846Z,99.9
2018-09-13T23:44:24.525Z,100
2018-09-13T23:49:24.408Z,100
2018-09-13T23:54:24.416Z,100
2018-09-13T23:59:24.321Z,100
